createdAt,value
2023-05-14T00:00:04.262Z,12.25
2023-05-14T00:01:04.099Z,12.19
2023-05-14T00:03:03.713Z,12.19
2023-05-14T00:04:03.664Z,12.12
2023-05-14T00:05:03.524Z,12.12
2023-05-14T00:06:04.410Z,12.06
2023-05-14T00:08:03.875Z,12.00
2023-05-14T00:09:03.864Z,12.00
2023-05-14T00:10:03.870Z,12.00
2023-05-14T00:11:04.260Z,11.94
2023-05-14T00:13:04.490Z,11.88
2023-05-14T00:14:04.168Z,11.81
2023-05-14T00:15:03.701Z,11.81
2023-05-14T00:16:03.568Z,11.75
2023-05-14T00:17:03.788Z,11.69
2023-05-14T00:18:04.478Z,11.69
2023-05-14T00:19:04.136Z,11.69
2023-05-14T00:20:04.322Z,11.62
2023-05-14T00:22:04.117Z,11.56
2023-05-14T00:23:03.892Z,11.56
2023-05-14T00:24:03.630Z,11.50
2023-05-14T00:25:04.247Z,11.44
2023-05-14T00:26:03.879Z,11.44
2023-05-14T00:27:04.105Z,11.38
2023-05-14T00:28:04.120Z,11.38
2023-05-14T00:29:03.572Z,11.31
2023-05-14T00:30:04.329Z,11.31
2023-05-14T00:31:04.461Z,11.31
2023-05-14T00:32:04.182Z,11.25
2023-05-14T00:34:03.565Z,11.19
2023-05-14T00:35:04.271Z,11.19
2023-05-14T00:36:04.168Z,11.12
2023-05-14T00:37:04.085Z,11.12
2023-05-14T00:38:04.106Z,11.06
2023-05-14T00:39:03.799Z,11.06
2023-05-14T00:40:04.286Z,11.00
2023-05-14T00:42:03.636Z,11.00
2023-05-14T00:43:04.407Z,10.94
2023-05-14T00:44:03.981Z,10.94
2023-05-14T00:45:03.643Z,10.88
2023-05-14T00:46:04.507Z,10.88
2023-05-14T00:47:04.053Z,10.81
2023-05-14T00:48:03.980Z,10.81
2023-05-14T00:49:03.855Z,10.75
2023-05-14T00:51:03.715Z,10.75
2023-05-14T00:52:04.410Z,10.69
2023-05-14T00:53:03.928Z,10.69
2023-05-14T00:54:04.050Z,10.62
2023-05-14T00:56:04.430Z,10.62
2023-05-14T00:57:04.109Z,10.56
2023-05-14T00:58:03.784Z,10.56
2023-05-14T00:59:04.488Z,10.50
2023-05-14T01:01:04.323Z,10.44
2023-05-14T01:02:03.928Z,10.44
2023-05-14T01:04:03.835Z,10.44
2023-05-14T01:05:04.501Z,10.38
2023-05-14T01:07:03.716Z,10.31
2023-05-14T01:08:03.558Z,10.31
2023-05-14T01:09:04.416Z,10.31
2023-05-14T01:10:04.417Z,10.31
2023-05-14T01:11:04.092Z,10.25
2023-05-14T01:12:03.788Z,10.25
2023-05-14T01:13:04.375Z,10.25
2023-05-14T01:14:04.026Z,10.19
2023-05-14T01:15:03.632Z,10.12
2023-05-14T01:16:04.463Z,10.12
2023-05-14T01:17:04.018Z,10.12
2023-05-14T01:18:03.900Z,10.12
2023-05-14T01:19:04.048Z,10.06
2023-05-14T01:20:03.784Z,10.06
2023-05-14T01:21:03.940Z,10.06
2023-05-14T01:23:04.417Z,10.00
2023-05-14T01:24:04.107Z,10.00
2023-05-14T01:25:04.112Z,10.00
2023-05-14T01:26:03.716Z,9.94
2023-05-14T01:27:03.463Z,9.94
2023-05-14T01:28:04.330Z,9.88
2023-05-14T01:29:04.254Z,9.88
2023-05-14T01:30:03.861Z,9.88
2023-05-14T01:31:04.408Z,9.88
2023-05-14T01:32:04.094Z,9.81
2023-05-14T01:33:03.911Z,9.81
2023-05-14T01:34:03.972Z,9.81
2023-05-14T01:35:04.010Z,9.81
2023-05-14T01:36:03.706Z,9.75
2023-05-14T01:37:04.415Z,9.75
2023-05-14T01:38:03.946Z,9.69
2023-05-14T01:40:03.780Z,9.62
2023-05-14T01:41:04.429Z,9.62
2023-05-14T01:43:03.846Z,9.62
2023-05-14T01:44:03.566Z,9.62
2023-05-14T01:45:04.387Z,9.62
2023-05-14T01:46:04.353Z,9.56
2023-05-14T01:47:04.094Z,9.56
2023-05-14T01:48:03.764Z,9.56
2023-05-14T01:49:03.540Z,9.56
2023-05-14T01:51:04.410Z,9.56
2023-05-14T01:52:03.721Z,9.50
2023-05-14T01:53:04.325Z,9.50
2023-05-14T01:54:04.483Z,9.50
2023-05-14T01:56:03.735Z,9.44
2023-05-14T01:57:03.794Z,9.44
2023-05-14T01:58:03.619Z,9.44
2023-05-14T01:59:04.510Z,9.44
2023-05-14T02:00:04.114Z,9.38
2023-05-14T02:01:03.844Z,9.38
2023-05-14T02:03:03.572Z,9.31
2023-05-14T02:04:03.675Z,9.31
2023-05-14T02:05:04.883Z,9.25
2023-05-14T02:07:03.720Z,9.25
2023-05-14T02:08:03.635Z,9.25
2023-05-14T02:09:04.485Z,9.19
2023-05-14T02:10:04.176Z,9.19
2023-05-14T02:11:04.240Z,9.19
2023-05-14T02:13:03.552Z,9.19
2023-05-14T02:14:04.084Z,9.12
2023-05-14T02:15:03.779Z,9.12
2023-05-14T02:16:03.840Z,9.12
2023-05-14T02:17:03.639Z,9.12
2023-05-14T02:19:03.600Z,9.06
2023-05-14T02:20:04.444Z,9.06
2023-05-14T02:21:04.333Z,9.06
2023-05-14T02:22:04.103Z,9.06
2023-05-14T02:24:03.563Z,9.06
2023-05-14T02:25:04.335Z,9.00
2023-05-14T02:26:03.646Z,9.00
2023-05-14T02:27:03.519Z,9.00
2023-05-14T02:28:04.615Z,8.94
2023-05-14T02:30:03.560Z,8.94
2023-05-14T02:31:03.601Z,8.94
2023-05-14T02:32:04.275Z,8.94
2023-05-14T02:33:04.030Z,8.94
2023-05-14T02:34:03.702Z,8.88
2023-05-14T02:35:03.603Z,8.88
2023-05-14T02:37:04.106Z,8.88
2023-05-14T02:38:03.894Z,8.88
2023-05-14T02:39:03.535Z,8.81
2023-05-14T02:40:04.127Z,8.88
2023-05-14T02:41:03.549Z,8.81
2023-05-14T02:42:03.582Z,8.81
2023-05-14T02:43:03.774Z,8.81
2023-05-14T02:44:04.433Z,8.81
2023-05-14T02:46:03.733Z,8.81
2023-05-14T02:47:04.605Z,8.75
2023-05-14T02:48:03.837Z,8.81
2023-05-14T02:49:03.538Z,8.75
2023-05-14T02:50:04.412Z,8.75
2023-05-14T02:52:03.728Z,8.75
2023-05-14T02:53:03.741Z,8.75
2023-05-14T02:54:03.618Z,8.75
2023-05-14T02:55:04.495Z,8.75
2023-05-14T02:57:03.743Z,8.69
2023-05-14T02:59:03.573Z,8.69
2023-05-14T03:01:03.813Z,8.69
2023-05-14T03:02:05.228Z,8.69
2023-05-14T03:03:03.979Z,8.69
2023-05-14T03:04:04.016Z,8.69
2023-05-14T03:05:04.122Z,8.69
2023-05-14T03:06:03.742Z,8.62
2023-05-14T03:07:03.570Z,8.62
2023-05-14T03:08:03.658Z,8.69
2023-05-14T03:09:03.644Z,8.62
2023-05-14T03:10:03.802Z,8.62
2023-05-14T03:11:04.091Z,8.62
2023-05-14T03:12:03.873Z,8.62
2023-05-14T03:13:04.335Z,8.69
2023-05-14T03:15:03.876Z,8.69
2023-05-14T03:17:03.929Z,8.69
2023-05-14T03:18:04.045Z,8.75
2023-05-14T03:19:03.759Z,8.75
2023-05-14T03:20:03.949Z,8.69
2023-05-14T03:21:03.696Z,8.69
2023-05-14T03:22:03.717Z,8.75
2023-05-14T03:23:03.714Z,8.75
2023-05-14T03:24:03.604Z,8.75
2023-05-14T03:25:03.938Z,8.75
2023-05-14T03:26:04.524Z,8.75
2023-05-14T03:28:03.548Z,8.81
2023-05-14T03:29:03.606Z,8.81
2023-05-14T03:30:03.699Z,8.75
2023-05-14T03:31:03.608Z,8.81
2023-05-14T03:32:03.798Z,8.94
2023-05-14T03:33:03.601Z,8.94
2023-05-14T03:34:03.821Z,8.94
2023-05-14T03:35:04.498Z,8.88
2023-05-14T03:36:04.253Z,8.88
2023-05-14T03:37:04.022Z,8.88
2023-05-14T03:38:04.283Z,8.94
2023-05-14T03:39:03.786Z,8.94
2023-05-14T03:40:03.628Z,8.88
2023-05-14T03:41:03.587Z,8.94
2023-05-14T03:42:03.617Z,8.88
2023-05-14T03:43:04.344Z,8.88
2023-05-14T03:44:03.649Z,8.88
2023-05-14T03:45:03.661Z,8.94
2023-05-14T03:47:04.119Z,9.00
2023-05-14T03:48:04.397Z,8.94
2023-05-14T03:49:03.980Z,8.94
2023-05-14T03:50:03.960Z,8.88
2023-05-14T03:51:03.611Z,8.88
2023-05-14T03:52:03.624Z,8.88
2023-05-14T03:54:03.911Z,8.88
2023-05-14T03:55:03.610Z,8.88
2023-05-14T03:56:03.739Z,8.88
2023-05-14T03:57:03.631Z,8.88
2023-05-14T03:58:03.619Z,8.88
2023-05-14T03:59:03.620Z,8.94
2023-05-14T04:00:03.701Z,9.06
2023-05-14T04:01:03.636Z,9.25
2023-05-14T04:02:03.648Z,9.25
2023-05-14T04:03:03.909Z,9.19
2023-05-14T04:04:04.158Z,9.12
2023-05-14T04:06:03.655Z,9.12
2023-05-14T04:07:04.734Z,9.25
2023-05-14T04:08:03.835Z,9.25
2023-05-14T04:09:04.422Z,9.25
2023-05-14T04:10:04.638Z,9.19
2023-05-14T04:11:03.820Z,9.19
2023-05-14T04:12:04.354Z,9.25
2023-05-14T04:14:03.862Z,9.25
2023-05-14T04:15:03.645Z,9.25
2023-05-14T04:16:03.750Z,9.25
2023-05-14T04:17:03.725Z,9.31
2023-05-14T04:18:03.767Z,9.31
2023-05-14T04:19:03.804Z,9.31
2023-05-14T04:20:03.882Z,9.31
2023-05-14T04:21:04.509Z,9.50
2023-05-14T04:22:04.425Z,9.50
2023-05-14T04:25:04.785Z,9.50
2023-05-14T04:27:03.641Z,9.44
2023-05-14T04:28:03.670Z,9.44
2023-05-14T04:29:03.685Z,9.44
2023-05-14T04:30:03.773Z,9.44
2023-05-14T04:31:03.804Z,9.44
2023-05-14T04:32:03.810Z,9.44
2023-05-14T04:33:04.486Z,9.50
2023-05-14T04:34:04.272Z,9.50
2023-05-14T04:36:03.656Z,9.62
2023-05-14T04:37:03.741Z,9.62
2023-05-14T04:38:03.674Z,9.69
2023-05-14T04:39:03.648Z,9.69
2023-05-14T04:40:03.696Z,9.75
2023-05-14T04:41:03.747Z,9.81
2023-05-14T04:42:03.783Z,9.81
2023-05-14T04:43:04.187Z,9.94
2023-05-14T04:44:03.772Z,10.12
2023-05-14T04:45:03.785Z,10.38
2023-05-14T04:46:04.378Z,10.62
2023-05-14T04:47:03.696Z,10.81
2023-05-14T04:48:04.494Z,10.81
2023-05-14T04:49:04.122Z,10.88
2023-05-14T04:50:04.185Z,10.88
2023-05-14T04:51:06.331Z,10.88
2023-05-14T04:53:03.643Z,11.25
2023-05-14T04:54:03.671Z,11.25
2023-05-14T04:55:03.654Z,11.38
2023-05-14T04:56:03.726Z,11.56
2023-05-14T04:57:03.685Z,11.62
2023-05-14T04:58:03.700Z,11.81
2023-05-14T04:59:03.705Z,11.94
2023-05-14T05:00:03.758Z,12.06
2023-05-14T05:01:03.674Z,12.12
2023-05-14T05:03:03.841Z,12.31
2023-05-14T05:04:04.072Z,12.38
2023-05-14T05:06:03.658Z,12.88
2023-05-14T05:07:03.678Z,13.19
2023-05-14T05:09:03.783Z,13.81
2023-05-14T05:10:03.645Z,14.19
2023-05-14T05:11:03.728Z,14.50
2023-05-14T05:12:04.188Z,14.94
2023-05-14T05:13:03.779Z,15.31
2023-05-14T05:14:03.724Z,15.69
2023-05-14T05:15:03.712Z,16.00
2023-05-14T05:16:04.118Z,16.50
2023-05-14T05:18:04.612Z,17.38
2023-05-14T05:19:03.874Z,18.00
2023-05-14T05:20:03.795Z,18.56
2023-05-14T05:21:03.716Z,18.62
2023-05-14T05:22:03.980Z,18.69
2023-05-14T05:23:03.699Z,18.50
2023-05-14T05:24:03.778Z,18.50
2023-05-14T05:26:03.719Z,19.19
2023-05-14T05:27:03.732Z,20.12
2023-05-14T05:29:03.656Z,21.44
2023-05-14T05:30:03.711Z,21.75
2023-05-14T05:32:03.802Z,21.44
2023-05-14T05:33:04.009Z,21.62
2023-05-14T05:34:03.798Z,22.56
2023-05-14T05:35:03.736Z,23.44
2023-05-14T05:37:03.707Z,24.38
2023-05-14T05:38:03.738Z,24.12
2023-05-14T05:39:03.706Z,24.06
2023-05-14T05:40:03.717Z,23.44
2023-05-14T05:41:03.717Z,22.69
2023-05-14T05:42:03.871Z,21.94
2023-05-14T05:43:03.705Z,21.31
2023-05-14T05:44:03.720Z,21.00
2023-05-14T05:45:04.271Z,20.69
2023-05-14T05:47:04.299Z,20.31
2023-05-14T05:48:04.385Z,20.12
2023-05-14T05:49:03.958Z,20.06
2023-05-14T05:50:03.723Z,19.94
2023-05-14T05:51:03.695Z,19.81
2023-05-14T05:52:03.744Z,19.75
2023-05-14T05:53:04.216Z,19.69
2023-05-14T05:54:03.724Z,19.62
2023-05-14T05:55:03.810Z,19.56
2023-05-14T05:56:03.761Z,19.50
2023-05-14T05:57:03.728Z,19.44
2023-05-14T05:58:03.737Z,19.44
2023-05-14T05:59:03.712Z,19.44
2023-05-14T06:00:03.748Z,19.38
2023-05-14T06:01:04.348Z,19.38
2023-05-14T06:03:03.818Z,19.31
2023-05-14T06:04:03.802Z,19.25
2023-05-14T06:05:03.797Z,19.25
2023-05-14T06:06:03.872Z,19.25
2023-05-14T06:07:03.719Z,19.19
2023-05-14T06:08:03.830Z,19.12
2023-05-14T06:10:03.722Z,19.00
2023-05-14T06:11:03.730Z,19.00
2023-05-14T06:12:03.790Z,19.00
2023-05-14T06:13:03.739Z,19.00
2023-05-14T06:14:03.765Z,19.00
2023-05-14T06:15:03.788Z,19.00
2023-05-14T06:16:03.736Z,19.00
2023-05-14T06:17:03.778Z,18.94
2023-05-14T06:18:03.786Z,18.94
2023-05-14T06:19:03.803Z,18.94
2023-05-14T06:20:03.814Z,18.94
2023-05-14T06:21:03.778Z,18.94
2023-05-14T06:22:03.791Z,18.94
2023-05-14T06:23:03.773Z,19.12
2023-05-14T06:24:03.789Z,19.06
2023-05-14T06:25:03.853Z,19.06
2023-05-14T06:26:03.825Z,19.19
2023-05-14T06:27:03.949Z,19.19
2023-05-14T06:28:03.752Z,19.19
2023-05-14T06:29:03.758Z,19.19
2023-05-14T06:30:03.784Z,19.12
2023-05-14T06:31:03.793Z,19.19
2023-05-14T06:33:04.071Z,19.12
2023-05-14T06:34:04.061Z,19.12
2023-05-14T06:36:03.816Z,19.25
2023-05-14T06:37:03.800Z,19.31
2023-05-14T06:38:03.880Z,19.38
2023-05-14T06:39:03.804Z,19.44
2023-05-14T06:40:03.803Z,19.50
2023-05-14T06:41:03.869Z,19.50
2023-05-14T06:42:03.858Z,19.56
2023-05-14T06:43:04.195Z,19.69
2023-05-14T06:45:03.790Z,19.81
2023-05-14T06:46:03.799Z,19.88
2023-05-14T06:47:03.786Z,19.94
2023-05-14T06:48:04.742Z,19.94
2023-05-14T06:49:03.990Z,20.00
2023-05-14T06:52:03.819Z,20.19
2023-05-14T06:53:11.059Z,20.31
2023-05-14T06:55:03.815Z,20.44
2023-05-14T06:57:03.779Z,20.38
2023-05-14T06:58:04.356Z,20.31
2023-05-14T06:59:03.982Z,20.38
2023-05-14T07:00:03.979Z,20.38
2023-05-14T07:01:04.025Z,20.50
2023-05-14T07:02:04.489Z,20.56
2023-05-14T07:03:04.454Z,20.56
2023-05-14T07:04:04.528Z,20.56
2023-05-14T07:06:03.794Z,20.94
2023-05-14T07:07:04.192Z,21.12
2023-05-14T07:08:04.242Z,21.31
2023-05-14T07:09:03.814Z,21.44
2023-05-14T07:10:04.256Z,21.50
2023-05-14T07:11:04.189Z,21.56
2023-05-14T07:12:03.789Z,21.62
2023-05-14T07:13:03.809Z,21.62
2023-05-14T07:14:03.823Z,21.62
2023-05-14T07:15:03.804Z,21.81
2023-05-14T07:16:03.828Z,21.94
2023-05-14T07:17:04.449Z,22.06
2023-05-14T07:18:04.310Z,22.06
2023-05-14T07:19:04.497Z,22.12
2023-05-14T07:20:03.885Z,22.19
2023-05-14T07:22:04.032Z,22.38
2023-05-14T07:23:03.833Z,22.50
2023-05-14T07:24:03.893Z,22.50
2023-05-14T07:25:03.869Z,22.44
2023-05-14T07:26:03.909Z,22.56
2023-05-14T07:27:03.837Z,22.62
2023-05-14T07:29:03.837Z,22.88
2023-05-14T07:30:03.817Z,22.94
2023-05-14T07:31:04.038Z,22.94
2023-05-14T07:32:03.907Z,22.81
2023-05-14T07:33:03.937Z,22.94
2023-05-14T07:34:04.015Z,23.06
2023-05-14T07:35:03.886Z,23.06
2023-05-14T07:36:03.962Z,23.06
2023-05-14T07:37:03.843Z,23.06
2023-05-14T07:38:03.826Z,23.06
2023-05-14T07:39:03.861Z,23.06
2023-05-14T07:40:04.351Z,23.12
2023-05-14T07:41:03.966Z,23.12
2023-05-14T07:42:04.581Z,23.12
2023-05-14T07:44:03.856Z,23.25
2023-05-14T07:46:03.918Z,23.62
2023-05-14T07:49:04.259Z,24.06
2023-05-14T07:50:03.949Z,24.19
2023-05-14T07:51:03.879Z,24.19
2023-05-14T07:52:03.859Z,24.25
2023-05-14T07:53:04.110Z,24.19
2023-05-14T07:54:04.344Z,24.25
2023-05-14T07:56:03.851Z,24.31
2023-05-14T07:58:03.943Z,24.31
2023-05-14T07:59:04.033Z,24.25
2023-05-14T08:00:03.879Z,24.19
2023-05-14T08:01:03.940Z,24.06
2023-05-14T08:02:03.870Z,24.06
2023-05-14T08:03:04.123Z,24.06
2023-05-14T08:04:04.550Z,24.06
2023-05-14T08:05:04.341Z,24.12
2023-05-14T08:06:03.866Z,24.12
2023-05-14T08:07:03.868Z,24.06
2023-05-14T08:08:03.888Z,24.19
2023-05-14T08:10:03.952Z,24.00
2023-05-14T08:11:03.878Z,23.69
2023-05-14T08:12:03.891Z,23.62
2023-05-14T08:13:03.902Z,23.69
2023-05-14T08:15:03.893Z,23.88
2023-05-14T08:17:03.955Z,24.19
2023-05-14T08:18:04.172Z,24.19
2023-05-14T08:19:03.862Z,24.12
2023-05-14T08:20:04.041Z,24.19
2023-05-14T08:21:03.980Z,24.06
2023-05-14T08:22:04.149Z,24.06
2023-05-14T08:24:03.905Z,24.19
2023-05-14T08:25:03.907Z,24.19
2023-05-14T08:26:03.877Z,24.12
2023-05-14T08:27:03.956Z,24.00
2023-05-14T08:29:03.885Z,23.81
2023-05-14T08:30:03.911Z,23.75
2023-05-14T08:31:04.384Z,23.50
2023-05-14T08:32:12.070Z,23.38
2023-05-14T08:34:03.945Z,23.31
2023-05-14T08:35:03.878Z,23.19
2023-05-14T08:36:03.924Z,23.12
2023-05-14T08:37:03.953Z,23.12
2023-05-14T08:38:03.917Z,23.06
2023-05-14T08:39:03.916Z,23.00
2023-05-14T08:40:03.877Z,23.00
2023-05-14T08:41:03.904Z,22.94
2023-05-14T08:42:03.938Z,22.88
2023-05-14T08:44:03.903Z,22.81
2023-05-14T08:45:03.898Z,22.88
2023-05-14T08:46:03.984Z,22.75
2023-05-14T08:47:04.021Z,22.69
2023-05-14T08:48:04.024Z,22.62
2023-05-14T08:49:04.211Z,22.56
2023-05-14T08:50:03.920Z,22.44
2023-05-14T08:51:04.125Z,22.44
2023-05-14T08:53:03.936Z,22.56
2023-05-14T08:54:03.917Z,22.56
2023-05-14T08:55:03.969Z,22.62
2023-05-14T08:57:03.980Z,22.62
2023-05-14T08:58:04.831Z,22.50
2023-05-14T08:59:03.953Z,22.38
2023-05-14T09:00:03.923Z,22.25
2023-05-14T09:01:04.518Z,22.12
2023-05-14T09:02:04.179Z,22.19
2023-05-14T09:03:04.126Z,22.25
2023-05-14T09:04:03.958Z,22.19
2023-05-14T09:05:04.340Z,22.06
2023-05-14T09:06:04.350Z,21.94
2023-05-14T09:07:03.959Z,21.94
2023-05-14T09:08:03.966Z,21.88
2023-05-14T09:09:03.971Z,21.94
2023-05-14T09:10:04.058Z,22.00
2023-05-14T09:12:04.043Z,22.00
2023-05-14T09:13:04.040Z,21.75
2023-05-14T09:14:03.948Z,21.56
2023-05-14T09:15:03.917Z,21.38
2023-05-14T09:16:03.955Z,21.19
2023-05-14T09:17:04.033Z,21.12
2023-05-14T09:18:04.045Z,21.19
2023-05-14T09:19:04.447Z,21.25
2023-05-14T09:20:04.140Z,21.19
2023-05-14T09:21:03.971Z,21.25
2023-05-14T09:22:04.147Z,21.31
2023-05-14T09:23:04.196Z,21.31
2023-05-14T09:24:03.933Z,21.31
2023-05-14T09:25:03.940Z,21.25
2023-05-14T09:27:03.970Z,21.31
2023-05-14T09:28:03.958Z,21.25
2023-05-14T09:30:04.099Z,21.00
2023-05-14T09:31:03.971Z,21.06
2023-05-14T09:32:04.230Z,21.12
2023-05-14T09:33:04.377Z,21.12
2023-05-14T09:34:03.943Z,21.12
2023-05-14T09:35:03.957Z,21.19
2023-05-14T09:36:03.997Z,21.19
2023-05-14T09:38:03.968Z,21.25
2023-05-14T09:39:04.038Z,21.25
2023-05-14T09:40:03.958Z,21.19
2023-05-14T09:41:03.961Z,21.12
2023-05-14T09:43:04.926Z,21.12
2023-05-14T09:44:06.086Z,21.06
2023-05-14T09:45:04.049Z,21.06
2023-05-14T09:46:04.027Z,21.06
2023-05-14T09:47:04.061Z,21.00
2023-05-14T09:48:04.067Z,21.00
2023-05-14T09:49:04.273Z,21.00
2023-05-14T09:50:04.369Z,21.00
2023-05-14T09:51:04.670Z,21.00
2023-05-14T09:53:03.975Z,21.06
2023-05-14T09:54:03.996Z,21.06
2023-05-14T09:55:03.956Z,21.06
2023-05-14T09:56:04.433Z,21.06
2023-05-14T09:57:04.523Z,21.12
2023-05-14T09:59:04.098Z,21.06
2023-05-14T10:01:04.001Z,21.06
2023-05-14T10:02:04.013Z,21.06
2023-05-14T10:03:04.042Z,21.00
2023-05-14T10:04:04.153Z,21.00
2023-05-14T10:05:04.344Z,21.06
2023-05-14T10:06:03.988Z,21.12
2023-05-14T10:07:04.029Z,21.12
2023-05-14T10:08:03.958Z,21.19
2023-05-14T10:09:04.092Z,21.25
2023-05-14T10:10:04.164Z,21.31
2023-05-14T10:11:04.281Z,21.31
2023-05-14T10:12:04.194Z,21.31
2023-05-14T10:13:04.008Z,21.31
2023-05-14T10:14:04.002Z,21.38
2023-05-14T10:15:03.960Z,21.38
2023-05-14T10:16:04.046Z,21.31
2023-05-14T10:17:04.111Z,21.25
2023-05-14T10:18:04.017Z,21.19
2023-05-14T10:19:04.187Z,21.25
2023-05-14T10:20:04.027Z,21.38
2023-05-14T10:21:04.043Z,21.38
2023-05-14T10:22:04.015Z,21.44
2023-05-14T10:23:04.030Z,21.44
2023-05-14T10:24:04.330Z,21.38
2023-05-14T10:25:04.036Z,21.44
2023-05-14T10:26:04.263Z,21.38
2023-05-14T10:27:04.286Z,21.38
2023-05-14T10:28:04.006Z,21.44
2023-05-14T10:29:04.498Z,21.50
2023-05-14T10:30:04.270Z,21.56
2023-05-14T10:31:04.056Z,21.62
2023-05-14T10:32:04.186Z,21.62
2023-05-14T10:33:04.043Z,21.50
2023-05-14T10:34:04.025Z,21.38
2023-05-14T10:35:03.999Z,21.25
2023-05-14T10:36:04.053Z,21.19
2023-05-14T10:37:04.025Z,21.19
2023-05-14T10:38:04.033Z,21.19
2023-05-14T10:40:04.030Z,21.12
2023-05-14T10:41:04.272Z,21.19
2023-05-14T10:42:04.015Z,21.19
2023-05-14T10:43:04.126Z,21.25
2023-05-14T10:45:04.525Z,21.25
2023-05-14T10:47:04.610Z,21.25
2023-05-14T10:48:04.033Z,21.31
2023-05-14T10:49:04.038Z,21.31
2023-05-14T10:50:04.125Z,21.38
2023-05-14T10:51:04.052Z,21.31
2023-05-14T10:52:04.570Z,21.31
2023-05-14T10:54:04.021Z,21.25
2023-05-14T10:55:04.102Z,21.25
2023-05-14T10:56:04.001Z,21.19
2023-05-14T10:57:04.902Z,21.25
2023-05-14T10:58:04.046Z,21.00
2023-05-14T11:00:04.018Z,21.06
2023-05-14T11:01:03.999Z,21.12
2023-05-14T11:02:04.087Z,21.19
2023-05-14T11:03:04.184Z,21.19
2023-05-14T11:04:04.066Z,21.25
2023-05-14T11:05:04.034Z,21.19
2023-05-14T11:06:04.050Z,21.19
2023-05-14T11:07:04.013Z,21.19
2023-05-14T11:08:04.097Z,21.19
2023-05-14T11:09:04.118Z,21.12
2023-05-14T11:10:04.057Z,21.19
2023-05-14T11:11:04.044Z,21.12
2023-05-14T11:12:04.267Z,21.12
2023-05-14T11:13:04.059Z,21.06
2023-05-14T11:14:04.078Z,21.00
2023-05-14T11:15:04.060Z,20.94
2023-05-14T11:16:11.912Z,20.94
2023-05-14T11:17:05.111Z,21.00
2023-05-14T11:18:05.083Z,21.12
2023-05-14T11:19:04.112Z,21.19
2023-05-14T11:20:04.281Z,21.19
2023-05-14T11:21:04.293Z,21.31
2023-05-14T11:22:04.059Z,21.25
2023-05-14T11:23:04.093Z,21.19
2023-05-14T11:24:04.113Z,21.19
2023-05-14T11:25:04.419Z,21.19
2023-05-14T11:26:04.426Z,21.19
2023-05-14T11:27:04.190Z,21.25
2023-05-14T11:28:04.124Z,21.12
2023-05-14T11:29:04.193Z,21.06
2023-05-14T11:30:04.070Z,21.06
2023-05-14T11:31:04.043Z,21.00
2023-05-14T11:32:04.098Z,20.94
2023-05-14T11:33:04.212Z,20.88
2023-05-14T11:34:04.106Z,21.00
2023-05-14T11:36:04.055Z,20.94
2023-05-14T11:37:04.043Z,21.00
2023-05-14T11:38:04.443Z,20.81
2023-05-14T11:40:04.097Z,20.69
2023-05-14T11:41:04.193Z,20.62
2023-05-14T11:42:04.062Z,20.56
2023-05-14T11:43:04.277Z,20.50
2023-05-14T11:45:04.114Z,20.50
2023-05-14T11:46:04.181Z,20.50
2023-05-14T11:47:04.115Z,20.38
2023-05-14T11:48:04.093Z,20.44
2023-05-14T11:49:04.159Z,20.44
2023-05-14T11:51:04.051Z,20.62
2023-05-14T11:52:04.078Z,20.50
2023-05-14T11:54:04.078Z,20.44
2023-05-14T11:55:04.078Z,20.31
2023-05-14T11:56:04.046Z,20.38
2023-05-14T11:57:04.060Z,20.38
2023-05-14T11:58:04.071Z,20.44
2023-05-14T11:59:04.102Z,20.44
2023-05-14T12:00:04.048Z,20.31
2023-05-14T12:01:04.087Z,20.19
2023-05-14T12:03:04.182Z,20.12
2023-05-14T12:04:04.097Z,20.12
2023-05-14T12:05:04.078Z,20.19
2023-05-14T12:06:04.037Z,20.19
2023-05-14T12:07:04.100Z,20.19
2023-05-14T12:09:04.106Z,20.12
2023-05-14T12:10:04.072Z,20.06
2023-05-14T12:11:04.134Z,20.06
2023-05-14T12:12:04.078Z,20.00
2023-05-14T12:13:04.194Z,20.06
2023-05-14T12:14:04.074Z,20.12
2023-05-14T12:15:04.089Z,20.12
2023-05-14T12:16:04.187Z,20.12
2023-05-14T12:17:04.347Z,20.12
2023-05-14T12:18:08.354Z,20.19
2023-05-14T12:19:04.161Z,20.19
2023-05-14T12:20:04.103Z,20.19
2023-05-14T12:21:04.104Z,20.19
2023-05-14T12:22:04.092Z,20.12
2023-05-14T12:23:04.084Z,20.12
2023-05-14T12:24:04.096Z,20.12
2023-05-14T12:25:04.147Z,20.06
2023-05-14T12:26:04.120Z,20.06
2023-05-14T12:27:04.099Z,20.06
2023-05-14T12:28:04.120Z,20.06
2023-05-14T12:29:04.121Z,20.00
2023-05-14T12:30:19.662Z,19.94
2023-05-14T12:31:04.222Z,19.94
2023-05-14T12:32:04.329Z,19.94
2023-05-14T12:33:04.151Z,19.94
2023-05-14T12:34:04.140Z,20.00
2023-05-14T12:35:04.170Z,20.00
2023-05-14T12:36:20.221Z,20.00
2023-05-14T12:37:04.152Z,20.00
2023-05-14T12:39:04.100Z,19.94
2023-05-14T12:40:04.235Z,19.88
2023-05-14T12:41:04.192Z,19.88
2023-05-14T12:42:04.257Z,19.88
2023-05-14T12:43:04.095Z,19.88
2023-05-14T12:44:04.111Z,19.81
2023-05-14T12:45:04.362Z,19.69
2023-05-14T12:46:04.099Z,19.69
2023-05-14T12:47:04.112Z,19.62
2023-05-14T12:48:04.206Z,19.56
2023-05-14T12:49:04.285Z,19.50
2023-05-14T12:50:04.187Z,19.44
2023-05-14T12:51:04.107Z,19.44
2023-05-14T12:54:04.177Z,19.44
2023-05-14T12:55:04.156Z,19.38
2023-05-14T12:57:04.134Z,19.31
2023-05-14T12:58:04.170Z,19.31
2023-05-14T12:59:04.266Z,19.31
2023-05-14T13:00:04.117Z,19.25
2023-05-14T13:01:04.208Z,19.25
2023-05-14T13:02:04.264Z,19.25
2023-05-14T13:04:04.240Z,19.31
2023-05-14T13:05:04.194Z,19.25
2023-05-14T13:06:04.162Z,19.25
2023-05-14T13:08:04.160Z,19.25
2023-05-14T13:12:04.178Z,19.25
2023-05-14T13:14:04.148Z,19.25
2023-05-14T13:15:04.163Z,19.25
2023-05-14T13:17:04.188Z,19.25
2023-05-14T13:18:04.301Z,19.25
2023-05-14T13:19:04.437Z,19.19
2023-05-14T13:20:04.348Z,19.19
2023-05-14T13:21:04.493Z,19.19
2023-05-14T13:23:04.167Z,19.19
2023-05-14T13:24:04.183Z,19.19
2023-05-14T13:25:04.200Z,19.19
2023-05-14T13:26:04.113Z,19.19
2023-05-14T13:27:04.122Z,19.19
2023-05-14T13:28:04.168Z,19.19
2023-05-14T13:29:04.165Z,19.12
2023-05-14T13:30:04.181Z,19.06
2023-05-14T13:31:04.236Z,19.12
2023-05-14T13:32:04.347Z,19.19
2023-05-14T13:33:04.173Z,19.19
2023-05-14T13:34:04.205Z,19.19
2023-05-14T13:36:04.168Z,19.19
2023-05-14T13:37:04.215Z,19.25
2023-05-14T13:39:04.154Z,19.25
2023-05-14T13:40:04.192Z,19.31
2023-05-14T13:41:04.192Z,19.31
2023-05-14T13:42:04.293Z,19.31
2023-05-14T13:43:04.133Z,19.25
2023-05-14T13:44:04.256Z,19.19
2023-05-14T13:45:04.384Z,19.19
2023-05-14T13:46:05.083Z,19.19
2023-05-14T13:47:04.255Z,19.25
2023-05-14T13:48:04.468Z,19.19
2023-05-14T13:49:04.181Z,19.19
2023-05-14T13:50:04.191Z,19.19
2023-05-14T13:51:04.178Z,19.19
2023-05-14T13:52:04.217Z,19.19
2023-05-14T13:53:04.288Z,19.25
2023-05-14T13:54:04.272Z,19.19
2023-05-14T13:55:04.229Z,19.19
2023-05-14T13:56:04.267Z,19.19
2023-05-14T13:57:04.244Z,19.19
2023-05-14T13:58:04.166Z,19.06
2023-05-14T13:59:04.155Z,19.06
2023-05-14T14:00:04.174Z,19.00
2023-05-14T14:01:04.194Z,18.94
2023-05-14T14:02:04.278Z,19.00
2023-05-14T14:03:04.285Z,19.00
2023-05-14T14:05:04.354Z,18.94
2023-05-14T14:06:04.326Z,18.88
2023-05-14T14:07:04.293Z,18.88
2023-05-14T14:08:13.065Z,18.88
2023-05-14T14:09:04.251Z,18.81
2023-05-14T14:10:04.256Z,18.81
2023-05-14T14:12:04.437Z,18.81
2023-05-14T14:14:04.346Z,18.62
2023-05-14T14:15:04.177Z,18.56
2023-05-14T14:16:04.285Z,18.56
2023-05-14T14:17:04.171Z,18.31
2023-05-14T14:18:04.240Z,18.31
2023-05-14T14:19:04.323Z,18.25
2023-05-14T14:20:04.388Z,18.25
2023-05-14T14:21:04.256Z,18.25
2023-05-14T14:22:04.192Z,18.25
2023-05-14T14:24:04.164Z,18.19
2023-05-14T14:25:04.439Z,18.19
2023-05-14T14:26:04.258Z,18.19
2023-05-14T14:27:04.327Z,18.12
2023-05-14T14:28:04.259Z,18.06
2023-05-14T14:29:04.280Z,18.00
2023-05-14T14:30:04.237Z,17.94
2023-05-14T14:31:04.272Z,17.94
2023-05-14T14:32:04.297Z,17.88
2023-05-14T14:33:05.164Z,17.94
2023-05-14T14:35:04.261Z,17.88
2023-05-14T14:36:04.413Z,17.88
2023-05-14T14:37:04.198Z,17.81
2023-05-14T14:39:04.240Z,17.81
2023-05-14T14:40:04.291Z,17.81
2023-05-14T14:41:04.359Z,17.81
2023-05-14T14:42:04.186Z,17.81
2023-05-14T14:43:04.211Z,17.75
2023-05-14T14:44:04.246Z,17.81
2023-05-14T14:45:04.289Z,17.75
2023-05-14T14:46:04.326Z,17.75
2023-05-14T14:47:04.438Z,17.69
2023-05-14T14:48:04.502Z,17.69
2023-05-14T14:49:04.624Z,17.69
2023-05-14T14:50:04.222Z,17.62
2023-05-14T14:51:04.195Z,17.56
2023-05-14T14:52:04.267Z,17.56
2023-05-14T14:53:04.255Z,17.50
2023-05-14T14:54:04.338Z,17.38